createdAt,value
2023-02-26T00:00:28.823Z,88.67
2023-02-26T00:02:56.817Z,89.31
2023-02-26T00:05:24.911Z,89.41
2023-02-26T00:07:53.260Z,89.99
2023-02-26T00:10:21.128Z,89.76
2023-02-26T00:12:52.190Z,90.40
2023-02-26T00:15:20.853Z,90.75
2023-02-26T00:17:56.938Z,91.96
2023-02-26T00:20:26.474Z,91.75
2023-02-26T00:22:54.967Z,92.23
2023-02-26T00:25:22.891Z,92.31
2023-02-26T00:27:53.112Z,92.03
2023-02-26T00:30:21.872Z,91.91
2023-02-26T00:32:50.149Z,92.45
2023-02-26T00:35:18.502Z,92.74
2023-02-26T00:37:59.179Z,92.76
2023-02-26T00:40:36.898Z,93.54
2023-02-26T00:43:08.279Z,94.36
2023-02-26T00:45:39.635Z,94.37
2023-02-26T00:48:23.522Z,94.58
2023-02-26T00:51:00.196Z,95.33
2023-02-26T00:53:31.472Z,95.24
2023-02-26T00:55:59.306Z,95.31
2023-02-26T00:58:28.719Z,95.75
2023-02-26T01:00:56.703Z,96.14
2023-02-26T01:03:25.389Z,95.77
2023-02-26T01:05:53.822Z,95.63
2023-02-26T01:08:28.730Z,95.74
2023-02-26T01:10:57.125Z,96.53
2023-02-26T01:13:25.657Z,97.22
2023-02-26T01:16:03.471Z,96.62
2023-02-26T01:18:39.836Z,95.73
2023-02-26T01:21:13.943Z,96.35
2023-02-26T01:23:44.912Z,95.92
2023-02-26T01:26:21.292Z,95.93
2023-02-26T01:28:49.967Z,96.06
2023-02-26T01:31:31.629Z,96.15
2023-02-26T01:34:04.544Z,96.07
2023-02-26T01:36:37.412Z,96.04
2023-02-26T01:39:10.557Z,96.36
2023-02-26T01:41:43.591Z,96.56
2023-02-26T01:44:18.830Z,95.72
2023-02-26T01:47:03.159Z,95.94
2023-02-26T01:49:32.522Z,96.32
2023-02-26T01:52:02.076Z,96.37
2023-02-26T01:54:32.800Z,95.77
2023-02-26T01:57:04.919Z,96.41
2023-02-26T01:59:35.740Z,96.41
2023-02-26T02:02:07.960Z,96.53
2023-02-26T02:04:36.153Z,97.58
2023-02-26T02:07:04.921Z,97.90
2023-02-26T02:09:32.906Z,97.30
2023-02-26T02:12:11.252Z,98.22
2023-02-26T02:14:47.843Z,97.98
2023-02-26T02:17:25.287Z,97.75
2023-02-26T02:20:35.490Z,97.59
2023-02-26T02:23:11.732Z,98.54
2023-02-26T02:26:27.904Z,98.81
2023-02-26T02:29:30.736Z,99.45
2023-02-26T02:32:06.303Z,98.86
2023-02-26T02:34:39.340Z,98.80
2023-02-26T02:37:15.692Z,99.29
2023-02-26T02:39:45.933Z,99.72
2023-02-26T02:42:25.468Z,99.44
2023-02-26T02:45:00.134Z,99.81
2023-02-26T02:47:33.512Z,99.92
2023-02-26T02:50:09.338Z,100.00
2023-02-26T02:52:42.952Z,100.00
2023-02-26T02:55:18.266Z,100.00
2023-02-26T02:57:49.795Z,100.00
2023-02-26T03:00:21.628Z,100.00
2023-02-26T03:02:58.640Z,100.00
2023-02-26T03:05:26.698Z,100.00
2023-02-26T03:07:57.731Z,100.00
2023-02-26T03:10:25.626Z,100.00
2023-02-26T03:12:53.488Z,100.00
2023-02-26T03:15:32.695Z,100.00
2023-02-26T03:18:13.982Z,100.00
2023-02-26T03:20:50.792Z,100.00
2023-02-26T03:23:24.685Z,100.00
2023-02-26T03:25:57.645Z,100.00
2023-02-26T03:28:31.766Z,100.00
2023-02-26T03:31:09.845Z,100.00
2023-02-26T03:33:48.677Z,100.00
2023-02-26T03:36:25.293Z,100.00
2023-02-26T03:39:24.170Z,100.00
2023-02-26T03:41:58.813Z,100.00
2023-02-26T03:44:36.010Z,100.00
2023-02-26T03:47:08.606Z,100.00
2023-02-26T03:49:44.914Z,100.00
2023-02-26T03:52:15.107Z,100.00
2023-02-26T03:54:59.281Z,100.00
2023-02-26T03:57:51.532Z,100.00
2023-02-26T04:00:40.825Z,100.00
2023-02-26T04:03:15.553Z,100.00
2023-02-26T04:05:49.595Z,100.00
2023-02-26T04:08:18.056Z,100.00
2023-02-26T04:10:53.458Z,100.00
2023-02-26T04:13:21.779Z,100.00
2023-02-26T04:15:51.000Z,100.00
2023-02-26T04:18:18.819Z,100.00
2023-02-26T04:20:48.230Z,100.00
2023-02-26T04:23:16.363Z,100.00
2023-02-26T04:25:44.585Z,100.00
2023-02-26T04:28:14.178Z,100.00
2023-02-26T04:30:42.604Z,100.00
2023-02-26T04:33:14.424Z,100.00
2023-02-26T04:35:42.727Z,100.00
2023-02-26T04:38:12.134Z,100.00
2023-02-26T04:40:40.102Z,100.00
2023-02-26T04:43:11.781Z,100.00
2023-02-26T04:45:48.668Z,100.00
2023-02-26T04:48:18.244Z,100.00
2023-02-26T04:50:46.763Z,100.00
2023-02-26T04:53:16.228Z,100.00
2023-02-26T04:55:44.206Z,100.00
2023-02-26T04:58:12.271Z,100.00
2023-02-26T05:00:40.404Z,100.00
2023-02-26T05:03:09.918Z,100.00
2023-02-26T05:05:37.786Z,100.00
2023-02-26T05:08:05.740Z,100.00
2023-02-26T05:10:35.475Z,100.00
2023-02-26T05:13:05.576Z,100.00
2023-02-26T05:15:34.685Z,100.00
2023-02-26T05:18:02.632Z,100.00
2023-02-26T05:20:30.695Z,100.00
2023-02-26T05:23:00.154Z,100.00
2023-02-26T05:25:28.418Z,100.00
2023-02-26T05:27:57.621Z,100.00
2023-02-26T05:30:25.651Z,100.00
2023-02-26T05:32:54.700Z,100.00
2023-02-26T05:35:22.627Z,100.00
2023-02-26T05:37:50.423Z,100.00
2023-02-26T05:40:18.500Z,100.00
2023-02-26T05:42:46.429Z,100.00
2023-02-26T05:45:15.774Z,100.00
2023-02-26T05:47:43.701Z,100.00
2023-02-26T05:50:13.150Z,100.00
2023-02-26T05:52:41.017Z,100.00
2023-02-26T05:55:10.316Z,100.00
2023-02-26T05:57:38.286Z,100.00
2023-02-26T06:00:08.604Z,100.00
2023-02-26T06:02:43.741Z,100.00
2023-02-26T06:05:11.700Z,100.00
2023-02-26T06:07:39.665Z,99.83
2023-02-26T06:10:09.162Z,100.00
2023-02-26T06:12:37.631Z,99.81
2023-02-26T06:15:07.535Z,99.09
2023-02-26T06:17:35.549Z,98.62
2023-02-26T06:20:05.702Z,98.44
2023-02-26T06:22:33.617Z,97.74
2023-02-26T06:25:01.463Z,97.72
2023-02-26T06:27:29.301Z,97.02
2023-02-26T06:29:57.081Z,97.24
2023-02-26T06:32:25.387Z,96.66
2023-02-26T06:34:53.184Z,96.63
2023-02-26T06:37:22.505Z,96.51
2023-02-26T06:39:50.334Z,96.83
2023-02-26T06:42:20.073Z,95.68
2023-02-26T06:44:48.112Z,94.35
2023-02-26T06:47:15.918Z,94.54
2023-02-26T06:49:43.769Z,95.09
2023-02-26T06:52:11.708Z,95.06
2023-02-26T06:54:40.900Z,94.12
2023-02-26T06:57:08.857Z,94.52
2023-02-26T06:59:36.678Z,94.52
2023-02-26T07:02:04.851Z,93.92
2023-02-26T07:04:32.869Z,92.76
2023-02-26T07:07:00.837Z,93.96
2023-02-26T07:09:29.666Z,93.91
2023-02-26T07:11:58.843Z,93.36
2023-02-26T07:14:26.922Z,92.96
2023-02-26T07:16:54.847Z,92.68
2023-02-26T07:19:22.817Z,92.23
2023-02-26T07:21:50.799Z,91.64
2023-02-26T07:24:18.815Z,91.24
2023-02-26T07:26:46.762Z,90.77
2023-02-26T07:29:16.096Z,91.97
2023-02-26T07:31:44.425Z,91.33
2023-02-26T07:34:12.470Z,91.49
2023-02-26T07:36:40.367Z,91.29
2023-02-26T07:39:08.268Z,91.27
2023-02-26T07:41:36.031Z,90.00
2023-02-26T07:44:03.991Z,89.07
2023-02-26T07:46:33.833Z,88.44
2023-02-26T07:49:01.712Z,89.21
2023-02-26T07:51:31.598Z,88.67
2023-02-26T07:54:00.319Z,88.36
2023-02-26T07:56:28.447Z,88.37
2023-02-26T07:58:56.760Z,87.60
2023-02-26T08:01:24.688Z,87.85
2023-02-26T08:03:53.913Z,87.84
2023-02-26T08:06:22.068Z,86.96
2023-02-26T08:08:49.866Z,87.84
2023-02-26T08:11:17.673Z,87.12
2023-02-26T08:13:45.558Z,87.00
2023-02-26T08:16:13.752Z,85.88
2023-02-26T08:18:42.136Z,86.63
2023-02-26T08:21:11.877Z,85.42
2023-02-26T08:23:40.215Z,85.84
2023-02-26T08:26:11.016Z,86.43
2023-02-26T08:28:39.212Z,86.69
2023-02-26T08:31:08.019Z,85.85
2023-02-26T08:33:36.089Z,84.27
2023-02-26T08:36:04.058Z,85.42
2023-02-26T08:38:33.598Z,84.12
2023-02-26T08:41:01.832Z,83.90
2023-02-26T08:43:30.702Z,83.93
2023-02-26T08:46:00.135Z,85.76
2023-02-26T08:48:28.011Z,84.32
2023-02-26T08:50:56.797Z,83.95
2023-02-26T08:53:25.508Z,82.89
2023-02-26T08:55:55.042Z,81.10
2023-02-26T08:58:23.030Z,81.35
2023-02-26T09:00:51.166Z,79.65
2023-02-26T09:03:19.152Z,80.43
2023-02-26T09:05:47.097Z,79.47
2023-02-26T09:08:16.117Z,79.32
2023-02-26T09:10:44.586Z,78.81
2023-02-26T09:13:14.096Z,76.84
2023-02-26T09:15:42.815Z,76.08
2023-02-26T09:18:15.612Z,76.73
2023-02-26T09:20:43.901Z,76.49
2023-02-26T09:23:12.947Z,74.20
2023-02-26T09:25:41.307Z,73.35
2023-02-26T09:28:09.535Z,73.16
2023-02-26T09:30:38.809Z,74.41
2023-02-26T09:33:06.752Z,70.22
2023-02-26T09:35:34.631Z,71.57
2023-02-26T09:38:03.922Z,70.82
2023-02-26T09:40:43.959Z,68.53
2023-02-26T09:43:36.239Z,71.04
2023-02-26T09:46:15.662Z,69.68
2023-02-26T09:48:45.699Z,71.29
2023-02-26T09:51:21.712Z,69.29
2023-02-26T09:53:52.899Z,69.24
2023-02-26T09:56:25.497Z,68.45
2023-02-26T09:58:55.569Z,65.13
2023-02-26T10:01:31.061Z,66.87
2023-02-26T10:04:07.221Z,65.91
2023-02-26T10:06:40.047Z,63.53
2023-02-26T10:09:23.504Z,64.82
2023-02-26T10:11:57.376Z,60.94
2023-02-26T10:14:29.658Z,62.49
2023-02-26T10:17:02.292Z,58.78
2023-02-26T10:19:34.997Z,59.30
2023-02-26T10:22:14.769Z,57.16
2023-02-26T10:24:45.902Z,57.32
2023-02-26T10:27:17.351Z,57.45
2023-02-26T10:29:52.362Z,56.99
2023-02-26T10:32:29.678Z,56.22
2023-02-26T10:34:59.827Z,58.91
2023-02-26T10:37:40.039Z,56.88
2023-02-26T10:40:14.053Z,56.25
2023-02-26T10:42:46.680Z,54.72
2023-02-26T10:45:29.699Z,55.32
2023-02-26T10:48:11.147Z,56.56
2023-02-26T10:50:40.468Z,53.38
2023-02-26T10:53:13.259Z,52.57
2023-02-26T10:55:45.914Z,53.38
2023-02-26T10:58:18.137Z,52.62
2023-02-26T11:00:48.610Z,52.64
2023-02-26T11:03:20.663Z,52.89
2023-02-26T11:05:49.271Z,53.52
2023-02-26T11:08:20.513Z,53.88
2023-02-26T11:10:51.884Z,51.66
2023-02-26T11:13:20.222Z,52.88
2023-02-26T11:15:52.236Z,53.63
2023-02-26T11:18:25.824Z,54.31
2023-02-26T11:20:57.247Z,55.16
2023-02-26T11:23:29.700Z,55.10
2023-02-26T11:26:02.725Z,55.16
2023-02-26T11:28:35.867Z,52.42
2023-02-26T11:31:07.237Z,52.75
2023-02-26T11:33:39.596Z,53.65
2023-02-26T11:36:13.206Z,52.59
2023-02-26T11:38:42.197Z,52.93
2023-02-26T11:41:10.475Z,53.02
2023-02-26T11:43:45.052Z,52.93
2023-02-26T11:46:14.321Z,49.83
2023-02-26T11:48:47.280Z,50.62
2023-02-26T11:51:19.885Z,50.33
2023-02-26T11:53:51.966Z,48.71
2023-02-26T11:56:26.938Z,49.29
2023-02-26T11:58:56.402Z,49.53
2023-02-26T12:01:29.308Z,50.37
2023-02-26T12:04:02.966Z,50.27
2023-02-26T12:06:32.080Z,51.80
2023-02-26T12:09:00.051Z,51.46
2023-02-26T12:11:44.417Z,50.39
2023-02-26T12:14:27.934Z,51.01
2023-02-26T12:17:09.735Z,51.07
2023-02-26T12:19:47.598Z,49.39
2023-02-26T12:22:35.849Z,50.59
2023-02-26T12:25:23.488Z,49.86
2023-02-26T12:28:09.083Z,48.10
2023-02-26T12:31:16.568Z,48.59
2023-02-26T12:34:00.503Z,48.92
2023-02-26T12:36:49.426Z,49.19
2023-02-26T12:42:47.203Z,47.01
2023-02-26T12:45:27.167Z,48.38
2023-02-26T12:48:33.343Z,47.55
2023-02-26T12:51:12.380Z,48.52
2023-02-26T12:53:58.112Z,48.01
2023-02-26T12:56:46.008Z,47.29
2023-02-26T12:59:33.202Z,48.07
2023-02-26T13:02:21.878Z,47.97
2023-02-26T13:05:18.335Z,48.54
2023-02-26T13:08:05.897Z,48.08
2023-02-26T13:10:45.575Z,46.79
2023-02-26T13:13:33.653Z,47.16
2023-02-26T13:16:12.888Z,47.71
2023-02-26T13:18:48.484Z,48.29
2023-02-26T13:21:23.737Z,48.49
2023-02-26T13:23:55.429Z,46.77
2023-02-26T13:26:27.219Z,46.48
2023-02-26T13:28:59.272Z,47.84
2023-02-26T13:31:32.891Z,47.62
2023-02-26T13:34:05.918Z,48.66
2023-02-26T13:36:35.370Z,47.24
2023-02-26T13:39:30.934Z,47.63
2023-02-26T13:42:10.449Z,46.83
2023-02-26T13:44:50.333Z,46.68
2023-02-26T13:47:42.719Z,47.69
2023-02-26T13:50:28.610Z,47.41
2023-02-26T13:53:03.069Z,47.45
2023-02-26T13:55:42.293Z,48.40
2023-02-26T13:58:35.539Z,48.97
2023-02-26T14:01:11.731Z,48.98
2023-02-26T14:03:46.524Z,48.55
2023-02-26T14:06:40.385Z,46.64
2023-02-26T14:09:48.482Z,47.33
2023-02-26T14:12:31.938Z,45.90
2023-02-26T14:15:38.550Z,45.77
2023-02-26T14:18:21.703Z,46.33
2023-02-26T14:20:52.049Z,46.29
2023-02-26T14:23:36.624Z,45.71
2023-02-26T14:26:16.939Z,45.45
2023-02-26T14:28:57.639Z,45.02
2023-02-26T14:31:27.976Z,44.80
2023-02-26T14:34:09.985Z,44.82
2023-02-26T14:36:45.682Z,45.29
2023-02-26T14:39:25.513Z,44.92
2023-02-26T14:42:00.128Z,45.13
2023-02-26T14:44:30.927Z,45.70
2023-02-26T14:47:00.693Z,46.62
2023-02-26T14:49:32.356Z,46.36
2023-02-26T14:52:19.174Z,46.38
2023-02-26T14:55:02.130Z,46.37
2023-02-26T14:57:43.669Z,47.27
2023-02-26T15:00:25.449Z,47.58
2023-02-26T15:03:18.268Z,47.29
2023-02-26T15:06:00.990Z,47.19
2023-02-26T15:08:48.666Z,47.47
2023-02-26T15:11:41.611Z,47.49
2023-02-26T15:14:28.351Z,45.99
2023-02-26T15:17:08.121Z,46.12
2023-02-26T15:20:00.806Z,45.73
2023-02-26T15:22:38.756Z,45.43
2023-02-26T15:25:12.867Z,46.17
2023-02-26T15:27:40.817Z,46.31
2023-02-26T15:30:16.101Z,46.76
2023-02-26T15:32:44.265Z,46.51
2023-02-26T15:35:17.818Z,47.00
2023-02-26T15:37:50.130Z,48.14
2023-02-26T15:40:19.314Z,47.01
2023-02-26T15:42:51.109Z,47.33
2023-02-26T15:45:23.363Z,46.90
2023-02-26T15:47:56.678Z,46.79
2023-02-26T15:50:30.095Z,47.24
2023-02-26T15:53:01.719Z,46.81
2023-02-26T15:55:34.782Z,46.75
2023-02-26T15:58:04.118Z,46.80
2023-02-26T16:00:34.582Z,46.15
2023-02-26T16:03:04.528Z,46.53
2023-02-26T16:05:33.888Z,46.58
2023-02-26T16:08:01.873Z,46.66
2023-02-26T16:10:34.320Z,46.96
2023-02-26T16:13:06.242Z,47.22
2023-02-26T16:15:40.677Z,47.49
2023-02-26T16:18:11.394Z,46.99
2023-02-26T16:20:44.979Z,47.25
2023-02-26T16:23:17.035Z,47.56
2023-02-26T16:25:52.217Z,47.16
2023-02-26T16:28:24.937Z,47.29
2023-02-26T16:30:55.482Z,47.08
2023-02-26T16:33:25.864Z,48.29
2023-02-26T16:35:58.726Z,47.28
2023-02-26T16:38:28.050Z,48.61
2023-02-26T16:41:03.729Z,48.81
2023-02-26T16:43:36.442Z,46.83
2023-02-26T16:46:07.065Z,47.05
2023-02-26T16:48:43.898Z,46.28
2023-02-26T16:51:15.939Z,46.81
2023-02-26T16:53:48.452Z,47.06
2023-02-26T16:56:20.012Z,46.96
2023-02-26T16:59:02.904Z,47.01
2023-02-26T17:01:36.278Z,48.25
2023-02-26T17:04:05.442Z,47.85
2023-02-26T17:06:38.988Z,48.07
2023-02-26T17:09:10.271Z,47.79
2023-02-26T17:11:43.493Z,48.94
2023-02-26T17:14:19.128Z,48.98
2023-02-26T17:16:47.508Z,49.03
2023-02-26T17:19:15.702Z,49.53
2023-02-26T17:21:47.958Z,50.27
2023-02-26T17:24:20.025Z,50.21
2023-02-26T17:26:48.763Z,50.31
2023-02-26T17:29:20.479Z,50.91
2023-02-26T17:31:48.384Z,51.54
2023-02-26T17:34:16.229Z,51.03
2023-02-26T17:36:45.733Z,52.17
2023-02-26T17:39:14.285Z,52.21
2023-02-26T17:41:45.231Z,52.71
2023-02-26T17:44:13.190Z,52.53
2023-02-26T17:46:41.052Z,53.76
2023-02-26T17:49:10.712Z,55.39
2023-02-26T17:51:39.407Z,55.14
2023-02-26T17:54:09.707Z,55.73
2023-02-26T17:56:38.572Z,57.00
2023-02-26T17:59:07.127Z,57.96
2023-02-26T18:01:34.960Z,58.91
2023-02-26T18:04:03.602Z,59.49
2023-02-26T18:06:35.270Z,59.57
2023-02-26T18:09:05.695Z,60.40
2023-02-26T18:11:35.399Z,61.18
2023-02-26T18:14:03.600Z,61.17
2023-02-26T18:16:34.199Z,61.59
2023-02-26T18:19:02.945Z,62.26
2023-02-26T18:21:31.371Z,63.43
2023-02-26T18:24:01.041Z,64.11
2023-02-26T18:26:32.714Z,65.14
2023-02-26T18:29:02.008Z,65.51
2023-02-26T18:31:35.001Z,65.94
2023-02-26T18:34:04.163Z,65.46
2023-02-26T18:36:37.716Z,66.39
2023-02-26T18:39:08.437Z,66.42
2023-02-26T18:41:36.364Z,66.39
2023-02-26T18:44:05.844Z,67.24
2023-02-26T18:46:34.905Z,66.70
2023-02-26T18:49:02.888Z,66.47
2023-02-26T18:51:30.996Z,67.78
2023-02-26T18:53:58.887Z,68.07
2023-02-26T18:56:27.025Z,67.61
2023-02-26T18:58:54.799Z,67.42
2023-02-26T19:01:24.530Z,67.36
2023-02-26T19:03:52.406Z,69.44
2023-02-26T19:06:20.259Z,69.85
2023-02-26T19:08:48.203Z,69.79
2023-02-26T19:11:16.591Z,69.67
2023-02-26T19:13:45.420Z,69.81
2023-02-26T19:16:13.469Z,69.50
2023-02-26T19:18:42.804Z,69.62
2023-02-26T19:21:10.874Z,70.50
2023-02-26T19:23:38.788Z,71.14
2023-02-26T19:26:06.736Z,70.68
2023-02-26T19:28:34.568Z,71.73
2023-02-26T19:31:02.579Z,71.41
2023-02-26T19:33:30.528Z,71.40
2023-02-26T19:35:59.743Z,71.92
2023-02-26T19:38:27.794Z,71.77
2023-02-26T19:40:55.687Z,72.62
2023-02-26T19:43:23.856Z,73.72
2023-02-26T19:45:51.830Z,74.60
2023-02-26T19:48:21.174Z,74.44
2023-02-26T19:50:51.281Z,74.14
2023-02-26T19:53:20.764Z,74.68
2023-02-26T19:55:50.149Z,75.44
2023-02-26T19:58:19.590Z,75.75
2023-02-26T20:00:47.427Z,76.34
2023-02-26T20:03:15.360Z,76.32
2023-02-26T20:05:43.845Z,76.74
2023-02-26T20:08:11.689Z,76.92
2023-02-26T20:10:41.696Z,77.40
2023-02-26T20:13:09.694Z,78.22
2023-02-26T20:15:37.557Z,77.65
2023-02-26T20:18:05.657Z,77.75
2023-02-26T20:20:33.646Z,77.46
2023-02-26T20:23:02.155Z,77.34
2023-02-26T20:25:30.844Z,78.08
2023-02-26T20:28:00.276Z,79.00
2023-02-26T20:30:28.783Z,78.76
2023-02-26T20:32:56.824Z,79.39
2023-02-26T20:35:25.090Z,81.14
2023-02-26T20:37:52.964Z,81.17
2023-02-26T20:40:21.054Z,81.13
2023-02-26T20:42:48.933Z,80.58
2023-02-26T20:45:18.403Z,81.16
2023-02-26T20:47:46.253Z,81.05
2023-02-26T20:50:14.093Z,81.32
2023-02-26T20:52:41.966Z,82.09
2023-02-26T20:55:10.581Z,81.83
2023-02-26T20:57:38.545Z,82.56
2023-02-26T21:00:11.149Z,82.38
2023-02-26T21:02:41.332Z,83.25
2023-02-26T21:05:09.557Z,83.38
2023-02-26T21:07:39.260Z,83.18
2023-02-26T21:10:07.706Z,83.08
2023-02-26T21:12:35.667Z,83.86
2023-02-26T21:15:03.932Z,84.41
2023-02-26T21:17:32.742Z,84.50
2023-02-26T21:20:02.046Z,85.28
2023-02-26T21:22:29.888Z,85.97
2023-02-26T21:24:57.769Z,85.98
2023-02-26T21:27:25.760Z,86.66
2023-02-26T21:29:53.656Z,87.46
2023-02-26T21:32:21.761Z,87.60
2023-02-26T21:34:49.575Z,88.06
2023-02-26T21:37:18.964Z,87.72
2023-02-26T21:39:48.083Z,88.24
2023-02-26T21:42:16.157Z,88.78
2023-02-26T21:44:44.403Z,89.82
2023-02-26T21:47:12.499Z,90.29
2023-02-26T21:49:40.486Z,91.63
2023-02-26T21:52:09.164Z,90.84
2023-02-26T21:54:38.391Z,90.65
2023-02-26T21:57:07.218Z,91.15
2023-02-26T21:59:35.298Z,91.95
2023-02-26T22:02:03.598Z,92.29
2023-02-26T22:04:33.697Z,92.93
2023-02-26T22:07:01.747Z,93.53
2023-02-26T22:09:29.710Z,94.10
2023-02-26T22:11:58.966Z,95.30
2023-02-26T22:14:27.018Z,96.01
2023-02-26T22:16:54.856Z,96.59
2023-02-26T22:19:22.658Z,97.49
2023-02-26T22:21:50.452Z,97.40
2023-02-26T22:24:18.386Z,97.89
2023-02-26T22:26:48.918Z,98.74
2023-02-26T22:29:19.366Z,99.09
2023-02-26T22:31:47.985Z,99.93
2023-02-26T22:34:16.277Z,99.92
2023-02-26T22:36:44.130Z,100.00
2023-02-26T22:39:13.296Z,100.00
2023-02-26T22:41:41.188Z,100.00
2023-02-26T22:44:09.018Z,100.00
2023-02-26T22:46:38.774Z,100.00
2023-02-26T22:49:07.074Z,100.00
2023-02-26T22:51:34.932Z,100.00
2023-02-26T22:54:03.323Z,100.00
2023-02-26T22:56:31.476Z,100.00
2023-02-26T22:58:59.357Z,100.00
2023-02-26T23:01:29.852Z,100.00
2023-02-26T23:03:59.646Z,100.00
2023-02-26T23:06:27.778Z,100.00
2023-02-26T23:08:55.770Z,100.00
2023-02-26T23:11:24.032Z,100.00
2023-02-26T23:13:51.902Z,100.00
2023-02-26T23:16:19.742Z,100.00
2023-02-26T23:18:48.223Z,100.00
2023-02-26T23:21:18.194Z,100.00
2023-02-26T23:23:46.184Z,100.00
2023-02-26T23:26:14.271Z,100.00
2023-02-26T23:28:42.320Z,100.00
2023-02-26T23:31:10.224Z,100.00
2023-02-26T23:33:38.208Z,100.00
2023-02-26T23:36:07.234Z,100.00
2023-02-26T23:38:36.507Z,100.00
2023-02-26T23:41:04.468Z,100.00
2023-02-26T23:43:32.450Z,100.00
2023-02-26T23:46:00.437Z,100.00
2023-02-26T23:48:28.458Z,100.00
2023-02-26T23:50:56.888Z,100.00
2023-02-26T23:53:24.719Z,100.00
2023-02-26T23:55:58.383Z,100.00
2023-02-26T23:58:27.046Z,100.00
